createdAt,value
2023-03-12T00:02:17.493Z,100570.50
2023-03-12T00:04:41.300Z,100559.81
2023-03-12T00:07:06.647Z,100563.75
2023-03-12T00:09:30.263Z,100565.16
2023-03-12T00:11:53.799Z,100565.69
2023-03-12T00:14:17.453Z,100564.03
2023-03-12T00:16:40.961Z,100559.72
2023-03-12T00:19:04.628Z,100548.09
2023-03-12T00:21:28.221Z,100558.41
2023-03-12T00:23:54.247Z,100557.69
2023-03-12T00:26:18.755Z,100559.34
2023-03-12T00:28:42.743Z,100569.06
2023-03-12T00:31:17.251Z,100563.03
2023-03-12T00:33:40.810Z,100569.50
2023-03-12T00:36:04.630Z,100579.78
2023-03-12T00:38:28.238Z,100577.91
2023-03-12T00:40:53.214Z,100576.41
2023-03-12T00:43:16.853Z,100583.34
2023-03-12T00:45:40.844Z,100580.59
2023-03-12T00:48:04.641Z,100581.69
2023-03-12T00:50:28.238Z,100585.63
2023-03-12T00:52:52.322Z,100585.56
2023-03-12T00:55:15.963Z,100582.66
2023-03-12T00:57:40.924Z,100579.16
2023-03-12T01:00:09.889Z,100577.69
2023-03-12T01:02:33.544Z,100583.00
2023-03-12T01:04:57.088Z,100590.81
2023-03-12T01:07:21.985Z,100596.22
2023-03-12T01:09:45.645Z,100593.22
2023-03-12T01:12:09.894Z,100599.44
2023-03-12T01:14:35.029Z,100591.97
2023-03-12T01:16:58.633Z,100607.59
2023-03-12T01:19:22.229Z,100598.63
2023-03-12T01:21:46.070Z,100593.44
2023-03-12T01:24:10.239Z,100598.63
2023-03-12T01:26:33.896Z,100599.75
2023-03-12T01:28:57.547Z,100602.63
2023-03-12T01:31:22.882Z,100605.69
2023-03-12T01:33:47.557Z,100609.75
2023-03-12T01:36:19.021Z,100605.78
2023-03-12T01:38:42.624Z,100613.09
2023-03-12T01:41:06.326Z,100605.97
2023-03-12T01:43:33.705Z,100619.81
2023-03-12T01:46:33.348Z,100608.94
2023-03-12T01:49:04.955Z,100611.47
2023-03-12T01:51:33.082Z,100619.34
2023-03-12T01:54:01.525Z,100625.94
2023-03-12T01:56:32.256Z,100616.66
2023-03-12T01:59:01.088Z,100622.00
2023-03-12T02:01:25.497Z,100629.72
2023-03-12T02:03:55.346Z,100631.03
2023-03-12T02:06:26.253Z,100635.00
2023-03-12T02:08:50.283Z,100629.25
2023-03-12T02:11:14.219Z,100629.31
2023-03-12T02:13:38.670Z,100628.91
2023-03-12T02:16:02.439Z,100642.84
2023-03-12T02:18:26.831Z,100635.00
2023-03-12T02:21:01.284Z,100644.88
2023-03-12T02:23:33.625Z,100645.41
2023-03-12T02:26:00.138Z,100645.84
2023-03-12T02:28:29.728Z,100655.78
2023-03-12T02:30:57.182Z,100650.63
2023-03-12T02:33:20.964Z,100652.41
2023-03-12T02:35:46.953Z,100655.28
2023-03-12T02:38:35.144Z,100660.28
2023-03-12T02:41:02.430Z,100659.72
2023-03-12T02:43:27.025Z,100664.38
2023-03-12T02:45:51.547Z,100666.28
2023-03-12T02:48:15.108Z,100672.50
2023-03-12T02:50:38.689Z,100673.34
2023-03-12T02:53:02.249Z,100673.88
2023-03-12T02:55:25.850Z,100675.75
2023-03-12T02:57:50.792Z,100677.94
2023-03-12T03:00:17.672Z,100675.88
2023-03-12T03:02:45.783Z,100678.88
2023-03-12T03:05:12.253Z,100673.41
2023-03-12T03:07:36.136Z,100681.09
2023-03-12T03:10:04.017Z,100673.41
2023-03-12T03:12:27.837Z,100681.34
2023-03-12T03:14:52.872Z,100684.53
2023-03-12T03:17:16.449Z,100688.66
2023-03-12T03:19:40.080Z,100691.94
2023-03-12T03:22:03.634Z,100697.41
2023-03-12T03:24:27.553Z,100698.69
2023-03-12T03:26:51.177Z,100700.66
2023-03-12T03:29:15.354Z,100698.25
2023-03-12T03:31:40.288Z,100697.47
2023-03-12T03:34:03.869Z,100704.22
2023-03-12T03:36:27.904Z,100700.19
2023-03-12T03:39:05.713Z,100701.84
2023-03-12T03:41:29.664Z,100698.34
2023-03-12T03:43:57.626Z,100705.47
2023-03-12T03:46:21.282Z,100708.84
2023-03-12T03:48:52.442Z,100715.69
2023-03-12T03:51:17.380Z,100722.78
2023-03-12T03:53:43.875Z,100724.63
2023-03-12T03:56:09.345Z,100726.72
2023-03-12T03:58:35.318Z,100729.63
2023-03-12T04:00:59.014Z,100730.66
2023-03-12T04:03:22.812Z,100727.09
2023-03-12T04:05:47.838Z,100731.91
2023-03-12T04:08:12.125Z,100732.88
2023-03-12T04:10:36.293Z,100730.28
2023-03-12T04:13:00.049Z,100734.81
2023-03-12T04:15:23.928Z,100737.03
2023-03-12T04:17:47.648Z,100742.66
2023-03-12T04:20:13.276Z,100736.97
2023-03-12T04:22:39.872Z,100744.66
2023-03-12T04:25:04.151Z,100742.25
2023-03-12T04:27:27.691Z,100741.13
2023-03-12T04:29:51.285Z,100743.91
2023-03-12T04:32:14.963Z,100742.97
2023-03-12T04:34:38.577Z,100740.34
2023-03-12T04:37:03.150Z,100740.50
2023-03-12T04:39:28.664Z,100741.25
2023-03-12T04:41:52.313Z,100750.09
2023-03-12T04:44:16.600Z,100757.50
2023-03-12T04:46:41.043Z,100761.31
2023-03-12T04:49:06.203Z,100755.19
2023-03-12T04:51:33.192Z,100754.66
2023-03-12T04:53:59.320Z,100755.81
2023-03-12T04:56:24.545Z,100758.75
2023-03-12T04:58:49.381Z,100764.19
2023-03-12T05:01:25.535Z,100770.06
2023-03-12T05:03:49.540Z,100766.84
2023-03-12T05:06:13.180Z,100772.44
2023-03-12T05:08:36.920Z,100773.34
2023-03-12T05:11:00.489Z,100774.31
2023-03-12T05:13:25.619Z,100772.94
2023-03-12T05:15:53.614Z,100777.06
2023-03-12T05:18:20.321Z,100776.25
2023-03-12T05:20:44.392Z,100776.97
2023-03-12T05:23:08.273Z,100776.16
2023-03-12T05:25:31.858Z,100774.38
2023-03-12T05:27:56.191Z,100775.25
2023-03-12T05:30:23.041Z,100767.41
2023-03-12T05:32:46.798Z,100767.63
2023-03-12T05:35:11.311Z,100766.16
2023-03-12T05:37:36.731Z,100766.19
2023-03-12T05:40:00.726Z,100771.06
2023-03-12T05:42:26.452Z,100766.25
2023-03-12T05:44:51.482Z,100768.22
2023-03-12T05:47:19.072Z,100766.44
2023-03-12T05:49:44.233Z,100763.09
2023-03-12T05:52:08.566Z,100772.16
2023-03-12T05:54:32.548Z,100766.66
2023-03-12T05:56:56.702Z,100768.00
2023-03-12T05:59:22.042Z,100764.53
2023-03-12T06:01:46.567Z,100774.13
2023-03-12T06:04:11.785Z,100772.59
2023-03-12T06:06:37.120Z,100777.50
2023-03-12T06:09:01.455Z,100772.22
2023-03-12T06:11:25.493Z,100769.03
2023-03-12T06:13:49.269Z,100776.16
2023-03-12T06:16:19.273Z,100770.16
2023-03-12T06:18:43.127Z,100770.97
2023-03-12T06:21:13.380Z,100774.13
2023-03-12T06:23:37.093Z,100777.16
2023-03-12T06:26:01.425Z,100776.16
2023-03-12T06:28:25.333Z,100779.72
2023-03-12T06:30:48.868Z,100781.03
2023-03-12T06:33:12.420Z,100784.28
2023-03-12T06:35:36.553Z,100788.69
2023-03-12T06:38:01.512Z,100786.97
2023-03-12T06:40:25.051Z,100783.56
2023-03-12T06:42:48.798Z,100793.41
2023-03-12T06:45:13.045Z,100793.28
2023-03-12T06:47:36.599Z,100797.91
2023-03-12T06:50:00.177Z,100795.31
2023-03-12T06:52:23.862Z,100797.19
2023-03-12T06:54:48.817Z,100798.00
2023-03-12T06:57:12.403Z,100799.06
2023-03-12T06:59:36.029Z,100793.88
2023-03-12T07:01:59.599Z,100790.00
2023-03-12T07:04:23.416Z,100787.41
2023-03-12T07:06:50.445Z,100795.44
2023-03-12T07:09:14.111Z,100800.59
2023-03-12T07:11:39.015Z,100798.34
2023-03-12T07:14:02.618Z,100791.88
2023-03-12T07:16:26.321Z,100794.38
2023-03-12T07:18:49.893Z,100788.19
2023-03-12T07:21:13.441Z,100792.97
2023-03-12T07:23:37.045Z,100799.88
2023-03-12T07:26:00.595Z,100807.19
2023-03-12T07:28:25.520Z,100793.50
2023-03-12T07:30:50.634Z,100805.00
2023-03-12T07:33:14.546Z,100805.00
2023-03-12T07:35:39.796Z,100810.69
2023-03-12T07:38:04.050Z,100814.78
2023-03-12T07:40:27.749Z,100820.66
2023-03-12T07:42:52.394Z,100832.09
2023-03-12T07:45:17.530Z,100823.22
2023-03-12T07:47:41.251Z,100817.69
2023-03-12T07:50:05.379Z,100819.25
2023-03-12T07:52:29.274Z,100827.66
2023-03-12T07:54:54.370Z,100825.28
2023-03-12T07:57:18.633Z,100825.31
2023-03-12T07:59:42.305Z,100819.50
2023-03-12T08:02:11.125Z,100817.50
2023-03-12T08:04:34.809Z,100830.69
2023-03-12T08:06:58.459Z,100823.19
2023-03-12T08:09:22.031Z,100827.19
2023-03-12T08:11:45.679Z,100832.16
2023-03-12T08:14:09.270Z,100828.63
2023-03-12T08:16:33.028Z,100831.41
2023-03-12T08:18:58.184Z,100832.81
2023-03-12T08:21:21.900Z,100828.66
2023-03-12T08:23:45.626Z,100825.13
2023-03-12T08:26:09.270Z,100821.06
2023-03-12T08:28:32.824Z,100824.16
2023-03-12T08:31:00.809Z,100825.75
2023-03-12T08:33:24.473Z,100827.00
2023-03-12T08:35:50.752Z,100816.56
2023-03-12T08:38:14.607Z,100813.09
2023-03-12T08:40:38.300Z,100823.81
2023-03-12T08:43:01.883Z,100833.81
2023-03-12T08:45:25.420Z,100822.63
2023-03-12T08:47:49.224Z,100818.41
2023-03-12T08:50:16.555Z,100822.66
2023-03-12T08:52:41.838Z,100821.03
2023-03-12T08:55:06.429Z,100821.81
2023-03-12T08:57:30.284Z,100819.84
2023-03-12T08:59:53.831Z,100824.41
2023-03-12T09:02:17.387Z,100815.88
2023-03-12T09:04:41.178Z,100820.97
2023-03-12T09:07:04.982Z,100818.41
2023-03-12T09:09:29.992Z,100818.09
2023-03-12T09:11:54.447Z,100811.44
2023-03-12T09:17:02.212Z,100800.88
2023-03-12T09:19:25.841Z,100800.78
2023-03-12T09:21:49.546Z,100802.19
2023-03-12T09:24:13.752Z,100793.88
2023-03-12T09:26:38.727Z,100797.59
2023-03-12T09:29:02.357Z,100798.81
2023-03-12T09:31:26.188Z,100804.56
2023-03-12T09:33:49.735Z,100806.81
2023-03-12T09:36:13.381Z,100810.59
2023-03-12T09:38:38.022Z,100814.44
2023-03-12T09:41:01.720Z,100803.72
2023-03-12T09:43:35.577Z,100803.94
2023-03-12T09:45:59.374Z,100800.44
2023-03-12T09:48:31.064Z,100805.34
2023-03-12T09:50:55.619Z,100806.94
2023-03-12T09:53:28.407Z,100794.25
2023-03-12T09:55:54.606Z,100789.13
2023-03-12T09:58:26.232Z,100793.63
2023-03-12T10:00:50.043Z,100789.16
2023-03-12T10:03:31.243Z,100789.09
2023-03-12T10:06:08.203Z,100785.66
2023-03-12T10:08:43.749Z,100787.59
2023-03-12T10:11:19.168Z,100784.69
2023-03-12T10:14:03.086Z,100777.75
2023-03-12T10:16:52.749Z,100774.56
2023-03-12T10:19:33.574Z,100782.63
2023-03-12T10:22:03.180Z,100780.22
2023-03-12T10:24:42.229Z,100768.41
2023-03-12T10:27:15.148Z,100765.63
2023-03-12T10:29:44.783Z,100754.41
2023-03-12T10:32:16.736Z,100759.53
2023-03-12T10:34:45.802Z,100757.78
2023-03-12T10:37:21.279Z,100760.72
2023-03-12T10:39:45.065Z,100768.81
2023-03-12T10:42:17.717Z,100750.22
2023-03-12T10:44:42.818Z,100745.13
2023-03-12T10:47:18.758Z,100741.38
2023-03-12T10:49:42.347Z,100746.06
2023-03-12T10:52:11.244Z,100748.16
2023-03-12T10:54:38.183Z,100736.66
2023-03-12T10:57:01.929Z,100738.38
2023-03-12T10:59:31.205Z,100731.53
2023-03-12T11:01:56.586Z,100728.78
2023-03-12T11:04:24.783Z,100722.91
2023-03-12T11:07:22.085Z,100718.22
2023-03-12T11:09:45.928Z,100713.47
2023-03-12T11:12:27.656Z,100715.06
2023-03-12T11:14:51.926Z,100712.78
2023-03-12T11:17:25.104Z,100717.91
2023-03-12T11:19:48.746Z,100709.63
2023-03-12T11:22:15.953Z,100706.81
2023-03-12T11:24:58.234Z,100698.53
2023-03-12T11:27:41.378Z,100688.03
2023-03-12T11:30:08.167Z,100696.03
2023-03-12T11:32:39.152Z,100689.81
2023-03-12T11:35:04.371Z,100678.53
2023-03-12T11:37:43.758Z,100679.25
2023-03-12T11:40:26.810Z,100681.91
2023-03-12T11:43:13.813Z,100677.13
2023-03-12T11:45:50.583Z,100675.66
2023-03-12T11:48:26.698Z,100675.53
2023-03-12T11:51:06.904Z,100668.97
2023-03-12T11:53:59.702Z,100672.69
2023-03-12T11:56:29.545Z,100674.13
2023-03-12T11:59:14.470Z,100668.63
2023-03-12T12:01:49.647Z,100658.88
2023-03-12T12:07:11.537Z,100652.66
2023-03-12T12:09:43.948Z,100637.44
2023-03-12T12:12:35.803Z,100637.66
2023-03-12T12:15:21.063Z,100631.38
2023-03-12T12:18:01.350Z,100634.59
2023-03-12T12:20:38.840Z,100629.44
2023-03-12T12:23:24.252Z,100602.53
2023-03-12T12:26:10.736Z,100587.91
2023-03-12T12:29:22.771Z,100580.25
2023-03-12T12:31:52.612Z,100591.22
2023-03-12T12:34:55.168Z,100578.22
2023-03-12T12:37:31.793Z,100582.13
2023-03-12T12:40:08.836Z,100572.00
2023-03-12T12:42:35.206Z,100564.63
2023-03-12T12:45:01.910Z,100558.06
2023-03-12T12:47:38.712Z,100558.00
2023-03-12T12:50:04.483Z,100553.97
2023-03-12T12:52:29.838Z,100548.41
2023-03-12T12:55:03.386Z,100546.97
2023-03-12T12:57:35.302Z,100553.16
2023-03-12T13:00:19.276Z,100555.13
2023-03-12T13:02:47.935Z,100541.84
2023-03-12T13:05:23.165Z,100543.63
2023-03-12T13:07:46.763Z,100543.63
2023-03-12T13:10:48.625Z,100550.69
2023-03-12T13:13:23.367Z,100549.50
2023-03-12T13:15:47.836Z,100550.13
2023-03-12T13:18:25.773Z,100551.59
2023-03-12T13:21:14.714Z,100538.69
2023-03-12T13:23:48.128Z,100532.78
2023-03-12T13:26:25.140Z,100530.41
2023-03-12T13:29:23.463Z,100523.44
2023-03-12T13:31:47.131Z,100517.53
2023-03-12T13:34:45.992Z,100523.47
2023-03-12T13:37:56.214Z,100522.91
2023-03-12T13:40:55.614Z,100521.25
2023-03-12T13:43:42.821Z,100519.47
2023-03-12T13:46:10.447Z,100495.66
2023-03-12T13:48:36.428Z,100499.22
2023-03-12T13:51:03.972Z,100507.53
2023-03-12T13:53:33.490Z,100510.94
2023-03-12T13:56:05.971Z,100500.75
2023-03-12T13:58:32.313Z,100506.78
2023-03-12T14:01:03.850Z,100503.38
2023-03-12T14:03:32.598Z,100491.47
2023-03-12T14:06:00.750Z,100491.44
2023-03-12T14:08:49.447Z,100506.38
2023-03-12T14:11:33.698Z,100505.50
2023-03-12T14:14:42.625Z,100500.78
2023-03-12T14:17:06.848Z,100491.75
2023-03-12T14:19:32.799Z,100485.09
2023-03-12T14:22:01.514Z,100479.91
2023-03-12T14:24:29.874Z,100487.31
2023-03-12T14:26:55.454Z,100484.97
2023-03-12T14:29:24.595Z,100478.88
2023-03-12T14:31:50.299Z,100485.00
2023-03-12T14:34:20.609Z,100495.03
2023-03-12T14:36:48.997Z,100493.75
2023-03-12T14:39:29.926Z,100486.28
2023-03-12T14:42:01.161Z,100497.59
2023-03-12T14:44:27.213Z,100488.84
2023-03-12T14:47:00.742Z,100494.50
2023-03-12T14:49:24.409Z,100491.84
2023-03-12T14:51:47.943Z,100486.91
2023-03-12T14:54:24.358Z,100488.00
2023-03-12T14:56:48.304Z,100476.13
2023-03-12T14:59:25.914Z,100471.53
2023-03-12T15:01:50.049Z,100459.38
2023-03-12T15:04:21.124Z,100448.59
2023-03-12T15:06:47.719Z,100452.53
2023-03-12T15:09:20.321Z,100459.19
2023-03-12T15:11:45.221Z,100450.94
2023-03-12T15:14:14.455Z,100445.06
2023-03-12T15:16:38.224Z,100441.34
2023-03-12T15:19:04.149Z,100437.06
2023-03-12T15:21:29.279Z,100449.56
2023-03-12T15:23:53.673Z,100433.09
2023-03-12T15:26:38.102Z,100439.16
2023-03-12T15:29:04.251Z,100449.22
2023-03-12T15:31:29.684Z,100452.47
2023-03-12T15:34:05.445Z,100443.16
2023-03-12T15:36:31.997Z,100455.56
2023-03-12T15:38:58.192Z,100446.78
2023-03-12T15:41:24.819Z,100441.19
2023-03-12T15:43:53.482Z,100430.34
2023-03-12T15:46:19.706Z,100417.44
2023-03-12T15:48:48.800Z,100417.19
2023-03-12T15:51:17.334Z,100422.22
2023-03-12T15:53:42.319Z,100430.63
2023-03-12T15:56:19.962Z,100426.06
2023-03-12T15:58:45.234Z,100424.69
2023-03-12T16:01:12.710Z,100424.47
2023-03-12T16:03:36.719Z,100409.91
2023-03-12T16:06:00.229Z,100415.91
2023-03-12T16:08:29.375Z,100422.06
2023-03-12T16:10:55.595Z,100419.97
2023-03-12T16:13:22.216Z,100402.25
2023-03-12T16:15:47.849Z,100399.53
2023-03-12T16:18:15.662Z,100398.88
2023-03-12T16:20:39.188Z,100399.25
2023-03-12T16:23:02.733Z,100394.00
2023-03-12T16:25:26.730Z,100387.84
2023-03-12T16:27:55.157Z,100380.16
2023-03-12T16:30:24.119Z,100380.28
2023-03-12T16:32:47.776Z,100373.25
2023-03-12T16:35:15.812Z,100371.31
2023-03-12T16:37:39.354Z,100369.50
2023-03-12T16:40:02.875Z,100369.41
2023-03-12T16:42:26.451Z,100371.72
2023-03-12T16:44:51.389Z,100389.22
2023-03-12T16:47:15.990Z,100384.25
2023-03-12T16:49:39.611Z,100385.16
2023-03-12T16:52:19.876Z,100387.34
2023-03-12T16:54:43.474Z,100386.03
2023-03-12T16:57:07.516Z,100393.25
2023-03-12T16:59:33.307Z,100390.47
2023-03-12T17:01:58.679Z,100389.47
2023-03-12T17:04:22.410Z,100391.16
2023-03-12T17:06:46.055Z,100384.25
2023-03-12T17:09:09.905Z,100376.75
2023-03-12T17:11:33.958Z,100375.50
2023-03-12T17:14:01.883Z,100366.81
2023-03-12T17:16:26.055Z,100366.25
2023-03-12T17:18:51.212Z,100371.84
2023-03-12T17:21:16.655Z,100371.41
2023-03-12T17:23:40.316Z,100369.53
2023-03-12T17:26:04.875Z,100371.06
2023-03-12T17:28:28.552Z,100357.56
2023-03-12T17:30:52.130Z,100354.09
2023-03-12T17:33:20.447Z,100356.66
2023-03-12T17:35:45.866Z,100352.94
2023-03-12T17:38:09.989Z,100346.16
2023-03-12T17:40:33.911Z,100349.22
2023-03-12T17:42:57.931Z,100350.06
2023-03-12T17:45:22.088Z,100339.72
2023-03-12T17:47:45.787Z,100332.06
2023-03-12T17:50:11.107Z,100340.78
2023-03-12T17:52:36.355Z,100349.03
2023-03-12T17:55:00.552Z,100353.56
2023-03-12T17:57:25.015Z,100344.63
2023-03-12T17:59:48.532Z,100346.41
2023-03-12T18:02:14.313Z,100345.72
2023-03-12T18:04:37.894Z,100339.94
2023-03-12T18:07:01.644Z,100326.38
2023-03-12T18:09:26.656Z,100324.19
2023-03-12T18:11:50.274Z,100326.13
2023-03-12T18:14:13.860Z,100319.34
2023-03-12T18:16:37.679Z,100314.81
2023-03-12T18:19:01.196Z,100316.06
2023-03-12T18:21:25.035Z,100309.59
2023-03-12T18:23:48.553Z,100312.44
2023-03-12T18:26:13.555Z,100311.88
2023-03-12T18:28:37.065Z,100308.88
2023-03-12T18:31:00.693Z,100311.78
2023-03-12T18:33:24.376Z,100307.94
2023-03-12T18:35:48.015Z,100311.09
2023-03-12T18:38:11.564Z,100317.38
2023-03-12T18:40:35.248Z,100310.72
2023-03-12T18:43:01.507Z,100304.16
2023-03-12T18:45:25.118Z,100304.59
2023-03-12T18:47:50.460Z,100308.84
2023-03-12T18:50:14.592Z,100306.88
2023-03-12T18:52:38.137Z,100294.84
2023-03-12T18:55:01.845Z,100296.78
2023-03-12T18:57:25.356Z,100297.63
2023-03-12T18:59:50.303Z,100290.75
2023-03-12T19:02:14.159Z,100277.91
2023-03-12T19:04:37.740Z,100282.03
2023-03-12T19:07:01.275Z,100277.16
2023-03-12T19:09:24.952Z,100277.88
2023-03-12T19:11:48.774Z,100277.09
2023-03-12T19:14:12.618Z,100274.47
2023-03-12T19:16:37.891Z,100272.63
2023-03-12T19:19:02.796Z,100264.16
2023-03-12T19:21:26.501Z,100260.53
2023-03-12T19:23:50.234Z,100252.69
2023-03-12T19:26:14.531Z,100249.97
2023-03-12T19:28:39.082Z,100248.03
2023-03-12T19:31:04.285Z,100249.84
2023-03-12T19:33:29.669Z,100249.09
2023-03-12T19:35:53.273Z,100260.63
2023-03-12T19:38:17.771Z,100263.00
2023-03-12T19:40:41.312Z,100255.94
2023-03-12T19:43:04.912Z,100250.03
2023-03-12T19:45:28.618Z,100246.59
2023-03-12T19:47:52.663Z,100254.09
2023-03-12T19:50:20.144Z,100243.31
2023-03-12T19:52:43.733Z,100250.97
2023-03-12T19:55:08.938Z,100255.88
2023-03-12T19:57:32.858Z,100248.03
2023-03-12T19:59:56.406Z,100248.44
2023-03-12T20:02:20.047Z,100249.03
2023-03-12T20:04:43.690Z,100244.56
2023-03-12T20:07:09.000Z,100261.16
2023-03-12T20:09:32.786Z,100248.38
2023-03-12T20:11:56.399Z,100231.97
2023-03-12T20:14:19.965Z,100239.25
2023-03-12T20:16:43.562Z,100237.22
2023-03-12T20:19:07.112Z,100239.63
2023-03-12T20:21:30.933Z,100238.78
2023-03-12T20:23:56.697Z,100245.44
2023-03-12T20:26:20.244Z,100231.97
2023-03-12T20:28:43.878Z,100228.53
2023-03-12T20:31:11.558Z,100225.97
2023-03-12T20:33:35.108Z,100228.00
2023-03-12T20:35:58.716Z,100231.19
2023-03-12T20:38:22.215Z,100227.91
2023-03-12T20:40:48.083Z,100228.88
2023-03-12T20:43:11.662Z,100227.06
2023-03-12T20:45:36.040Z,100218.53
2023-03-12T20:47:59.712Z,100226.53
2023-03-12T20:50:23.293Z,100226.63
2023-03-12T20:52:46.794Z,100220.34
2023-03-12T20:55:10.993Z,100240.06
2023-03-12T20:57:36.035Z,100232.50
2023-03-12T21:00:00.090Z,100240.41
2023-03-12T21:02:23.739Z,100232.41
2023-03-12T21:04:49.446Z,100238.69
2023-03-12T21:07:13.189Z,100250.41
2023-03-12T21:09:37.404Z,100247.09
2023-03-12T21:12:01.423Z,100244.13
2023-03-12T21:14:26.436Z,100245.84
2023-03-12T21:16:50.062Z,100257.53
2023-03-12T21:19:13.771Z,100253.19
2023-03-12T21:21:38.028Z,100255.75
2023-03-12T21:24:02.623Z,100257.75
2023-03-12T21:26:27.046Z,100250.09
2023-03-12T21:28:50.611Z,100241.78
2023-03-12T21:31:18.436Z,100245.09
2023-03-12T21:33:42.246Z,100242.31
2023-03-12T21:36:11.491Z,100240.06
2023-03-12T21:38:36.927Z,100227.50
2023-03-12T21:41:07.981Z,100224.75
2023-03-12T21:43:31.724Z,100228.31
2023-03-12T21:45:56.025Z,100224.44
2023-03-12T21:48:21.428Z,100219.53
2023-03-12T21:50:45.607Z,100210.78
2023-03-12T21:53:22.940Z,100226.56
2023-03-12T21:55:57.024Z,100235.72
2023-03-12T21:58:20.558Z,100228.06
2023-03-12T22:00:44.551Z,100229.34
2023-03-12T22:03:08.143Z,100235.53
2023-03-12T22:05:33.471Z,100226.97
2023-03-12T22:07:57.101Z,100236.31
2023-03-12T22:10:20.980Z,100235.53
2023-03-12T22:12:45.138Z,100247.47
2023-03-12T22:15:10.666Z,100244.03
2023-03-12T22:17:35.025Z,100242.16
2023-03-12T22:19:58.541Z,100236.16
2023-03-12T22:22:23.885Z,100224.13
2023-03-12T22:24:47.415Z,100225.72
2023-03-12T22:27:11.041Z,100226.28
2023-03-12T22:29:35.230Z,100225.41
2023-03-12T22:31:59.091Z,100221.53
2023-03-12T22:34:22.908Z,100219.13
2023-03-12T22:36:46.538Z,100213.63
2023-03-12T22:39:12.009Z,100211.69
2023-03-12T22:41:35.759Z,100187.75
2023-03-12T22:44:05.004Z,100203.84
2023-03-12T22:46:29.121Z,100210.34
2023-03-12T22:48:56.116Z,100223.50
2023-03-12T22:51:20.626Z,100221.25
2023-03-12T22:53:44.264Z,100218.34
2023-03-12T22:56:12.266Z,100210.34
2023-03-12T22:58:36.548Z,100207.50
2023-03-12T23:01:02.154Z,100208.78
2023-03-12T23:03:25.685Z,100216.50
2023-03-12T23:05:49.697Z,100222.97
2023-03-12T23:08:13.554Z,100214.53
2023-03-12T23:10:37.192Z,100209.19
2023-03-12T23:13:02.327Z,100200.66
2023-03-12T23:15:35.140Z,100200.09
2023-03-12T23:18:04.034Z,100195.84
2023-03-12T23:20:27.657Z,100188.72
2023-03-12T23:22:51.237Z,100186.66
2023-03-12T23:25:14.739Z,100194.66
2023-03-12T23:27:38.325Z,100191.47
2023-03-12T23:30:03.321Z,100188.50
2023-03-12T23:32:27.068Z,100187.56
2023-03-12T23:34:50.816Z,100174.91
2023-03-12T23:37:14.680Z,100190.50
2023-03-12T23:39:53.653Z,100188.38
2023-03-12T23:42:17.982Z,100186.34
2023-03-12T23:44:41.471Z,100187.16
2023-03-12T23:47:06.930Z,100189.75
2023-03-12T23:49:30.433Z,100184.72
2023-03-12T23:51:53.985Z,100193.19
2023-03-12T23:54:17.598Z,100184.16
2023-03-12T23:56:42.028Z,100182.09
2023-03-12T23:59:06.929Z,100180.38
